createdAt,value
2018-10-01T00:04:49.133Z,67.19
2018-10-01T00:10:53.762Z,67.13
2018-10-01T00:16:58.400Z,67.39
2018-10-01T00:23:02.993Z,67.35
2018-10-01T00:29:07.692Z,67.19
2018-10-01T00:35:12.563Z,67.60
2018-10-01T00:41:17.242Z,67.64
2018-10-01T00:47:21.856Z,67.46
2018-10-01T00:53:26.462Z,68.28
2018-10-01T00:59:31.092Z,68.23
2018-10-01T01:05:35.755Z,69.15
2018-10-01T01:11:40.413Z,69.39
2018-10-01T01:17:45.078Z,69.93
2018-10-01T01:23:49.648Z,70.00
2018-10-01T01:29:54.270Z,70.66
2018-10-01T01:35:58.920Z,70.18
2018-10-01T01:42:03.515Z,70.38
2018-10-01T01:48:08.138Z,70.27
2018-10-01T01:54:13.576Z,70.01
2018-10-01T02:00:18.561Z,70.17
2018-10-01T02:06:23.256Z,69.88
2018-10-01T02:12:27.864Z,69.62
2018-10-01T02:18:32.451Z,69.32
2018-10-01T02:24:37.094Z,69.68
2018-10-01T02:30:42.066Z,69.67
2018-10-01T02:36:46.881Z,70.25
2018-10-01T02:42:51.790Z,70.36
2018-10-01T02:48:56.739Z,69.96
2018-10-01T02:55:01.675Z,70.26
2018-10-01T03:01:06.466Z,70.26
2018-10-01T03:07:11.064Z,71.25
2018-10-01T03:13:15.755Z,71.26
2018-10-01T03:19:20.377Z,71.47
2018-10-01T03:25:24.960Z,70.30
2018-10-01T03:31:29.562Z,69.96
2018-10-01T03:37:34.177Z,71.57
2018-10-01T03:43:38.823Z,72.25
2018-10-01T03:49:43.495Z,72.58
2018-10-01T03:55:48.143Z,72.77
2018-10-01T04:01:52.759Z,73.37
2018-10-01T04:07:57.342Z,73.64
2018-10-01T04:14:01.962Z,73.08
2018-10-01T04:20:06.664Z,73.25
2018-10-01T04:26:11.256Z,73.14
2018-10-01T04:32:15.888Z,73.16
2018-10-01T04:38:20.877Z,72.68
2018-10-01T04:44:25.516Z,71.67
2018-10-01T04:50:30.240Z,72.10
2018-10-01T04:56:35.172Z,72.07
2018-10-01T05:02:40.161Z,72.40
2018-10-01T05:08:44.792Z,72.68
2018-10-01T05:14:49.483Z,72.79
2018-10-01T05:20:54.137Z,72.81
2018-10-01T05:26:58.753Z,73.63
2018-10-01T05:33:03.405Z,73.53
2018-10-01T05:39:11.664Z,74.27
2018-10-01T05:45:16.365Z,74.39
2018-10-01T05:51:20.945Z,74.83
2018-10-01T05:57:25.583Z,75.75
2018-10-01T06:03:30.237Z,76.32
2018-10-01T06:09:34.860Z,76.57
2018-10-01T06:15:39.470Z,78.05
2018-10-01T06:21:44.150Z,78.38
2018-10-01T06:27:48.758Z,77.77
2018-10-01T06:33:53.404Z,75.31
2018-10-01T06:39:58.028Z,75.30
2018-10-01T06:46:02.671Z,74.74
2018-10-01T06:52:07.485Z,75.52
2018-10-01T06:58:12.124Z,76.23
2018-10-01T07:04:16.756Z,76.44
2018-10-01T07:10:21.335Z,76.55
2018-10-01T07:16:26.086Z,75.95
2018-10-01T07:22:30.730Z,76.45
2018-10-01T07:28:35.432Z,76.82
2018-10-01T07:34:40.322Z,76.62
2018-10-01T07:40:44.938Z,76.23
2018-10-01T07:46:49.573Z,75.78
2018-10-01T07:52:54.289Z,74.41
2018-10-01T07:58:58.913Z,70.93
2018-10-01T08:05:03.597Z,70.75
2018-10-01T08:11:08.568Z,72.33
2018-10-01T08:17:13.235Z,72.88
2018-10-01T08:23:17.870Z,73.22
2018-10-01T08:29:22.601Z,72.32
2018-10-01T08:35:27.169Z,73.24
2018-10-01T08:41:31.770Z,72.80
2018-10-01T08:47:36.517Z,73.99
2018-10-01T08:54:01.580Z,74.43
2018-10-01T09:00:06.494Z,75.43
2018-10-01T09:06:11.139Z,75.05
2018-10-01T09:12:16.381Z,72.62
2018-10-01T09:18:21.038Z,69.08
2018-10-01T09:24:25.678Z,66.76
2018-10-01T09:30:30.749Z,69.12
2018-10-01T09:36:35.421Z,71.91
2018-10-01T09:42:40.125Z,73.47
2018-10-01T09:48:45.117Z,74.11
2018-10-01T09:54:49.763Z,73.90
2018-10-01T10:00:59.551Z,72.30
2018-10-01T10:07:04.174Z,67.16
2018-10-01T10:13:08.830Z,61.03
2018-10-01T10:19:13.450Z,58.86
2018-10-01T10:25:18.089Z,58.37
2018-10-01T10:31:22.741Z,56.55
2018-10-01T10:37:27.346Z,57.87
2018-10-01T10:43:31.929Z,59.65
2018-10-01T10:49:36.580Z,60.74
2018-10-01T10:55:41.609Z,69.19
2018-10-01T11:01:46.244Z,71.01
2018-10-01T11:07:50.856Z,69.04
2018-10-01T11:13:55.567Z,69.50
2018-10-01T11:20:00.340Z,66.78
2018-10-01T11:26:04.840Z,66.49
2018-10-01T11:32:09.547Z,62.53
2018-10-01T11:38:14.169Z,61.63
2018-10-01T11:44:18.755Z,60.54
2018-10-01T11:50:23.338Z,57.37
2018-10-01T11:56:28.350Z,55.99
2018-10-01T12:02:32.912Z,60.91
2018-10-01T12:08:37.548Z,64.00
2018-10-01T12:14:42.175Z,64.16
2018-10-01T12:20:46.735Z,56.03
2018-10-01T12:26:51.395Z,49.01
2018-10-01T12:32:56.364Z,47.17
2018-10-01T12:39:01.036Z,43.18
2018-10-01T12:45:06.170Z,42.79
2018-10-01T12:51:10.753Z,47.73
2018-10-01T12:57:15.433Z,51.86
2018-10-01T13:03:20.436Z,51.78
2018-10-01T13:09:25.052Z,51.11
2018-10-01T13:15:30.024Z,44.45
2018-10-01T13:21:34.826Z,46.69
2018-10-01T13:27:39.499Z,52.37
2018-10-01T13:33:44.103Z,67.76
2018-10-01T13:39:48.689Z,73.89
2018-10-01T13:45:53.336Z,77.18
2018-10-01T13:51:58.027Z,75.19
2018-10-01T13:58:02.712Z,74.80
2018-10-01T14:04:07.332Z,77.82
2018-10-01T14:10:12.059Z,78.46
2018-10-01T14:16:16.906Z,77.11
2018-10-01T14:22:21.562Z,75.87
2018-10-01T14:28:26.463Z,74.00
2018-10-01T14:34:31.421Z,74.26
2018-10-01T14:40:36.592Z,73.77
2018-10-01T14:46:41.297Z,73.89
2018-10-01T14:52:45.978Z,74.07
2018-10-01T14:58:50.658Z,76.06
2018-10-01T15:04:55.270Z,75.25
2018-10-01T15:11:00.237Z,74.54
2018-10-01T15:17:05.230Z,72.12
2018-10-01T15:23:09.883Z,73.09
2018-10-01T15:29:14.732Z,71.86
2018-10-01T15:35:19.435Z,72.52
2018-10-01T15:41:24.010Z,72.00
2018-10-01T15:47:28.672Z,73.93
2018-10-01T15:53:33.302Z,76.00
2018-10-01T15:59:37.973Z,75.35
2018-10-01T16:05:42.585Z,76.71
2018-10-01T16:11:47.219Z,77.73
2018-10-01T16:17:51.877Z,78.36
2018-10-01T16:23:56.563Z,78.02
2018-10-01T16:30:01.678Z,76.06
2018-10-01T16:36:06.395Z,74.83
2018-10-01T16:42:11.116Z,75.57
2018-10-01T16:48:16.280Z,73.69
2018-10-01T16:54:20.922Z,75.06
2018-10-01T17:00:25.538Z,75.21
2018-10-01T17:06:31.052Z,76.45
2018-10-01T17:12:36.120Z,77.96
2018-10-01T17:18:41.252Z,77.94
2018-10-01T17:24:45.894Z,78.66
2018-10-01T17:30:50.627Z,78.91
2018-10-01T17:36:55.579Z,79.86
2018-10-01T17:43:00.535Z,80.22
2018-10-01T17:49:05.424Z,80.56
2018-10-01T17:55:10.008Z,82.80
2018-10-01T18:01:14.702Z,83.59
2018-10-01T18:07:19.306Z,83.59
2018-10-01T18:13:24.068Z,83.20
2018-10-01T18:19:29.256Z,83.49
2018-10-01T18:25:34.108Z,83.34
2018-10-01T18:31:38.859Z,82.18
2018-10-01T18:37:43.775Z,80.40
2018-10-01T18:43:48.748Z,79.95
2018-10-01T18:49:53.606Z,80.46
2018-10-01T18:55:58.239Z,80.03
2018-10-01T19:02:02.837Z,80.01
2018-10-01T19:08:07.479Z,80.72
2018-10-01T19:14:12.177Z,80.83
2018-10-01T19:20:16.877Z,81.17
2018-10-01T19:26:21.510Z,80.72
2018-10-01T19:32:26.187Z,81.41
2018-10-01T19:38:31.166Z,81.58
2018-10-01T19:44:35.770Z,81.75
2018-10-01T19:50:40.445Z,81.81
2018-10-01T19:56:45.204Z,82.23
2018-10-01T20:02:50.716Z,82.81
2018-10-01T20:08:55.761Z,82.86
2018-10-01T20:15:00.629Z,83.00
2018-10-01T20:21:05.914Z,83.30
2018-10-01T20:27:11.379Z,83.11
2018-10-01T20:33:16.322Z,83.28
2018-10-01T20:39:21.421Z,83.33
2018-10-01T20:45:26.502Z,83.32
2018-10-01T20:51:31.490Z,83.57
2018-10-01T20:57:36.416Z,84.16
2018-10-01T21:03:41.334Z,83.54
2018-10-01T21:09:47.073Z,83.20
2018-10-01T21:15:52.072Z,83.17
2018-10-01T21:21:57.031Z,83.82
2018-10-01T21:28:01.993Z,83.86
2018-10-01T21:34:07.112Z,84.07
2018-10-01T21:40:12.943Z,83.40
2018-10-01T21:46:17.599Z,84.04
2018-10-01T21:52:22.279Z,83.67
2018-10-01T21:58:28.398Z,84.02
2018-10-01T22:04:33.332Z,83.89
2018-10-01T22:10:38.249Z,83.28
2018-10-01T22:16:42.912Z,82.99
2018-10-01T22:22:47.807Z,84.02
2018-10-01T22:28:52.410Z,84.06
2018-10-01T22:34:57.025Z,83.61
2018-10-01T22:41:01.712Z,83.79
2018-10-01T22:47:06.658Z,84.15
2018-10-01T22:53:11.338Z,84.28
2018-10-01T22:59:15.964Z,84.61
2018-10-01T23:05:20.568Z,83.68
2018-10-01T23:11:25.261Z,83.48
2018-10-01T23:17:29.864Z,83.83
2018-10-01T23:23:34.533Z,84.11
2018-10-01T23:29:39.135Z,83.71
2018-10-01T23:35:43.796Z,83.78
2018-10-01T23:41:49.025Z,84.16
2018-10-01T23:47:53.988Z,83.83
2018-10-01T23:53:58.917Z,83.41
